createdAt,value
2018-05-16T00:00:01.379Z,13.30
2018-05-16T00:02:29.518Z,13.30
2018-05-16T00:04:58.341Z,13.30
2018-05-16T00:07:26.446Z,13.30
2018-05-16T00:09:54.498Z,13.30
2018-05-16T00:12:23.337Z,13.30
2018-05-16T00:14:52.183Z,13.20
2018-05-16T00:17:20.296Z,13.20
2018-05-16T00:19:48.449Z,13.20
2018-05-16T00:22:16.594Z,13.20
2018-05-16T00:24:44.698Z,13.40
2018-05-16T00:27:12.738Z,13.20
2018-05-16T00:29:40.899Z,13.10
2018-05-16T00:32:09.002Z,13.10
2018-05-16T00:34:37.140Z,13.30
2018-05-16T00:37:05.229Z,13.40
2018-05-16T00:39:33.386Z,13.50
2018-05-16T00:42:01.520Z,13.50
2018-05-16T00:44:29.630Z,13.50
2018-05-16T00:46:57.785Z,13.30
2018-05-16T00:49:26.626Z,13.20
2018-05-16T00:51:54.817Z,13.20
2018-05-16T00:54:22.965Z,13.20
2018-05-16T00:56:51.004Z,13.20
2018-05-16T00:59:19.866Z,13.10
2018-05-16T01:01:48.009Z,13.10
2018-05-16T01:04:16.031Z,12.90
2018-05-16T01:06:44.945Z,12.90
2018-05-16T01:09:12.982Z,12.90
2018-05-16T01:11:41.090Z,13.00
2018-05-16T01:14:09.158Z,13.00
2018-05-16T01:16:37.220Z,12.80
2018-05-16T01:19:06.049Z,12.70
2018-05-16T01:21:34.099Z,12.70
2018-05-16T01:24:02.309Z,12.50
2018-05-16T01:26:30.385Z,12.50
2018-05-16T01:28:58.435Z,12.40
2018-05-16T01:31:26.474Z,12.50
2018-05-16T01:33:55.369Z,12.50
2018-05-16T01:36:24.206Z,12.60
2018-05-16T01:38:52.276Z,12.60
2018-05-16T01:41:20.275Z,12.40
2018-05-16T01:43:48.437Z,12.50
2018-05-16T01:46:16.484Z,12.50
2018-05-16T01:48:50.570Z,12.30
2018-05-16T01:51:18.644Z,12.20
2018-05-16T01:53:46.698Z,12.30
2018-05-16T01:56:15.488Z,12.40
2018-05-16T01:58:44.326Z,12.30
2018-05-16T02:01:12.398Z,12.30
2018-05-16T02:03:40.475Z,12.20
2018-05-16T02:06:08.516Z,12.30
2018-05-16T02:08:36.620Z,12.40
2018-05-16T02:11:04.782Z,12.30
2018-05-16T02:13:32.815Z,12.30
2018-05-16T02:16:00.893Z,12.30
2018-05-16T02:18:28.943Z,12.10
2018-05-16T02:20:57.727Z,12.20
2018-05-16T02:23:26.562Z,12.30
2018-05-16T02:25:54.720Z,12.30
2018-05-16T02:28:22.707Z,12.30
2018-05-16T02:30:50.731Z,12.40
2018-05-16T02:33:19.575Z,12.30
2018-05-16T02:35:47.602Z,12.30
2018-05-16T02:38:16.392Z,12.40
2018-05-16T02:40:45.222Z,12.40
2018-05-16T02:43:13.292Z,12.40
2018-05-16T02:45:41.379Z,12.30
2018-05-16T02:48:09.431Z,12.40
2018-05-16T02:50:37.464Z,12.30
2018-05-16T02:53:06.313Z,12.30
2018-05-16T02:55:34.459Z,12.30
2018-05-16T02:58:03.342Z,12.50
2018-05-16T03:00:31.454Z,12.50
2018-05-16T03:02:59.512Z,12.50
2018-05-16T03:05:27.503Z,12.40
2018-05-16T03:07:55.527Z,12.30
2018-05-16T03:10:23.571Z,12.30
2018-05-16T03:12:52.391Z,12.40
2018-05-16T03:15:20.502Z,12.30
2018-05-16T03:17:48.550Z,12.40
2018-05-16T03:20:16.629Z,12.40
2018-05-16T03:22:44.785Z,12.30
2018-05-16T03:25:12.826Z,12.30
2018-05-16T03:27:41.749Z,12.20
2018-05-16T03:30:09.836Z,12.20
2018-05-16T03:32:38.002Z,12.10
2018-05-16T03:35:06.044Z,12.30
2018-05-16T03:37:34.897Z,12.20
2018-05-16T03:40:03.019Z,12.20
2018-05-16T03:42:31.135Z,12.30
2018-05-16T03:44:59.179Z,12.30
2018-05-16T03:47:27.237Z,12.20
2018-05-16T03:49:55.313Z,12.30
2018-05-16T03:52:23.425Z,12.30
2018-05-16T03:54:51.686Z,12.30
2018-05-16T03:57:31.685Z,12.20
2018-05-16T04:00:12.427Z,12.00
2018-05-16T04:02:52.372Z,12.00
2018-05-16T04:05:20.462Z,12.20
2018-05-16T04:07:48.458Z,12.30
2018-05-16T04:10:17.338Z,12.30
2018-05-16T04:12:46.152Z,12.20
2018-05-16T04:15:14.258Z,12.20
2018-05-16T04:17:42.330Z,12.10
2018-05-16T04:20:10.455Z,12.00
2018-05-16T04:22:39.245Z,12.20
2018-05-16T04:25:08.103Z,12.10
2018-05-16T04:27:36.184Z,12.10
2018-05-16T04:30:04.294Z,12.10
2018-05-16T04:32:32.402Z,11.90
2018-05-16T04:35:00.479Z,11.80
2018-05-16T04:37:28.517Z,12.00
2018-05-16T04:39:56.567Z,12.20
2018-05-16T04:42:25.423Z,12.40
2018-05-16T04:44:53.525Z,12.40
2018-05-16T04:47:22.330Z,12.50
2018-05-16T04:49:50.418Z,12.50
2018-05-16T04:52:18.501Z,12.70
2018-05-16T04:54:46.615Z,12.80
2018-05-16T04:57:14.733Z,12.70
2018-05-16T04:59:42.795Z,12.60
2018-05-16T05:02:10.831Z,12.50
2018-05-16T05:04:38.948Z,12.70
2018-05-16T05:07:07.025Z,12.80
2018-05-16T05:09:35.082Z,12.70
2018-05-16T05:12:03.183Z,12.70
2018-05-16T05:14:31.269Z,12.90
2018-05-16T05:16:59.342Z,13.20
2018-05-16T05:19:27.364Z,13.20
2018-05-16T05:21:56.162Z,13.30
2018-05-16T05:24:24.213Z,13.30
2018-05-16T05:26:53.065Z,13.50
2018-05-16T05:29:21.129Z,13.50
2018-05-16T05:31:49.304Z,13.50
2018-05-16T05:34:17.462Z,13.70
2018-05-16T05:36:45.625Z,13.80
2018-05-16T05:39:14.526Z,14.00
2018-05-16T05:41:42.606Z,14.00
2018-05-16T05:44:10.702Z,13.60
2018-05-16T05:46:38.749Z,13.40
2018-05-16T05:49:06.829Z,13.30
2018-05-16T05:51:34.898Z,13.70
2018-05-16T05:54:02.994Z,13.90
2018-05-16T05:56:31.063Z,14.00
2018-05-16T05:58:59.191Z,14.00
2018-05-16T06:01:27.260Z,14.00
2018-05-16T06:03:56.012Z,14.00
2018-05-16T06:06:24.074Z,14.20
2018-05-16T06:08:52.112Z,14.10
2018-05-16T06:11:20.264Z,14.30
2018-05-16T06:13:48.338Z,14.20
2018-05-16T06:16:16.865Z,14.10
2018-05-16T06:18:44.866Z,14.30
2018-05-16T06:21:13.697Z,14.30
2018-05-16T06:23:41.770Z,14.30
2018-05-16T06:26:09.887Z,14.30
2018-05-16T06:28:37.993Z,14.40
2018-05-16T06:31:06.147Z,14.50
2018-05-16T06:33:35.099Z,14.60
2018-05-16T06:36:03.203Z,14.60
2018-05-16T06:38:31.223Z,14.60
2018-05-16T06:40:59.280Z,14.70
2018-05-16T06:43:27.272Z,14.90
2018-05-16T06:45:55.368Z,14.90
2018-05-16T06:48:23.456Z,14.90
2018-05-16T06:50:51.546Z,15.00
2018-05-16T06:53:20.378Z,15.10
2018-05-16T06:55:48.472Z,15.00
2018-05-16T06:58:16.586Z,15.20
2018-05-16T07:00:45.419Z,15.20
2018-05-16T07:03:14.306Z,15.30
2018-05-16T07:05:42.423Z,15.30
2018-05-16T07:08:11.978Z,15.40
2018-05-16T07:10:40.074Z,15.40
2018-05-16T07:13:08.163Z,15.40
2018-05-16T07:15:36.243Z,15.50
2018-05-16T07:18:04.339Z,15.60
2018-05-16T07:20:33.167Z,15.20
2018-05-16T07:23:01.286Z,15.20
2018-05-16T07:25:30.237Z,15.50
2018-05-16T07:27:58.263Z,15.50
2018-05-16T07:30:27.137Z,15.20
2018-05-16T07:32:55.246Z,15.20
2018-05-16T07:35:23.345Z,15.20
2018-05-16T07:37:51.450Z,14.90
2018-05-16T07:40:19.595Z,14.80
2018-05-16T07:42:47.734Z,14.90
2018-05-16T07:45:15.833Z,15.20
2018-05-16T07:47:44.078Z,15.50
2018-05-16T07:50:12.130Z,15.30
2018-05-16T07:52:40.916Z,15.20
2018-05-16T07:55:09.779Z,15.20
2018-05-16T07:57:37.907Z,15.20
2018-05-16T08:00:06.094Z,15.40
2018-05-16T08:02:34.122Z,15.60
2018-05-16T08:05:02.133Z,15.70
2018-05-16T08:07:30.246Z,16.10
2018-05-16T08:09:58.288Z,15.90
2018-05-16T08:12:26.353Z,16.20
2018-05-16T08:14:54.441Z,16.00
2018-05-16T08:17:24.809Z,16.20
2018-05-16T08:19:54.612Z,16.60
2018-05-16T08:22:22.646Z,16.60
2018-05-16T08:24:50.825Z,17.00
2018-05-16T08:27:18.971Z,16.50
2018-05-16T08:29:47.037Z,16.40
2018-05-16T08:32:15.123Z,16.20
2018-05-16T08:34:43.133Z,16.40
2018-05-16T08:37:11.253Z,16.70
2018-05-16T08:39:39.388Z,16.60
2018-05-16T08:42:07.409Z,16.70
2018-05-16T08:44:35.532Z,17.00
2018-05-16T08:47:03.599Z,16.90
2018-05-16T08:49:31.700Z,18.50
2018-05-16T08:52:00.480Z,16.90
2018-05-16T08:54:28.549Z,16.80
2018-05-16T08:56:56.675Z,17.20
2018-05-16T08:59:24.764Z,17.30
2018-05-16T09:01:52.860Z,16.70
2018-05-16T09:04:20.915Z,17.10
2018-05-16T09:06:48.946Z,16.60
2018-05-16T09:09:17.077Z,16.70
2018-05-16T09:11:45.123Z,17.50
2018-05-16T09:14:13.158Z,17.90
2018-05-16T09:16:41.284Z,17.70
2018-05-16T09:19:09.274Z,17.80
2018-05-16T09:21:38.094Z,16.90
2018-05-16T09:24:06.139Z,16.90
2018-05-16T09:26:35.033Z,16.60
2018-05-16T09:29:03.937Z,16.40
2018-05-16T09:31:32.725Z,16.50
2018-05-16T09:34:01.627Z,16.70
2018-05-16T09:36:29.631Z,16.70
2018-05-16T09:38:57.732Z,17.10
2018-05-16T09:41:25.782Z,17.20
2018-05-16T09:43:53.948Z,16.60
2018-05-16T09:46:22.109Z,16.70
2018-05-16T09:48:50.961Z,17.60
2018-05-16T09:51:19.924Z,17.40
2018-05-16T09:53:48.022Z,17.40
2018-05-16T09:56:16.829Z,17.00
2018-05-16T09:58:44.874Z,17.00
2018-05-16T10:01:13.692Z,17.10
2018-05-16T10:03:41.752Z,17.10
2018-05-16T10:06:10.665Z,17.20
2018-05-16T10:08:38.755Z,17.20
2018-05-16T10:11:06.798Z,17.40
2018-05-16T10:13:34.832Z,17.50
2018-05-16T10:16:03.052Z,17.40
2018-05-16T10:18:31.150Z,17.60
2018-05-16T10:20:59.188Z,18.20
2018-05-16T10:23:27.265Z,18.70
2018-05-16T10:25:55.409Z,19.20
2018-05-16T10:28:24.226Z,17.50
2018-05-16T10:30:52.271Z,17.50
2018-05-16T10:33:21.106Z,17.90
2018-05-16T10:35:49.219Z,17.90
2018-05-16T10:38:17.356Z,17.80
2018-05-16T10:40:45.398Z,17.90
2018-05-16T10:43:14.205Z,18.10
2018-05-16T10:45:42.288Z,18.10
2018-05-16T10:48:10.384Z,17.90
2018-05-16T10:50:38.465Z,17.70
2018-05-16T10:53:06.576Z,17.60
2018-05-16T10:55:35.467Z,18.30
2018-05-16T10:58:04.463Z,18.30
2018-05-16T11:00:32.522Z,18.20
2018-05-16T11:03:01.331Z,18.30
2018-05-16T11:05:29.390Z,18.20
2018-05-16T11:07:58.250Z,17.90
2018-05-16T11:10:26.366Z,17.80
2018-05-16T11:12:54.448Z,18.20
2018-05-16T11:15:22.511Z,18.00
2018-05-16T11:17:50.536Z,17.80
2018-05-16T11:20:18.581Z,17.70
2018-05-16T11:22:46.646Z,17.70
2018-05-16T11:25:14.761Z,17.60
2018-05-16T11:27:42.826Z,17.80
2018-05-16T11:30:10.921Z,18.30
2018-05-16T11:32:39.726Z,19.60
2018-05-16T11:35:07.767Z,19.60
2018-05-16T11:37:35.855Z,19.90
2018-05-16T11:40:04.790Z,20.80
2018-05-16T11:42:32.911Z,20.80
2018-05-16T11:45:00.982Z,20.60
2018-05-16T11:47:29.798Z,20.20
2018-05-16T11:49:58.686Z,20.70
2018-05-16T11:52:27.506Z,20.90
2018-05-16T11:54:55.559Z,20.90
2018-05-16T11:57:23.616Z,20.00
2018-05-16T11:59:52.485Z,19.80
2018-05-16T12:02:20.558Z,19.80
2018-05-16T12:04:48.626Z,19.50
2018-05-16T12:07:17.513Z,19.50
2018-05-16T12:09:45.729Z,19.50
2018-05-16T12:12:13.759Z,19.70
2018-05-16T12:14:42.068Z,19.80
2018-05-16T12:17:11.291Z,19.60
2018-05-16T12:19:40.114Z,19.60
2018-05-16T12:22:08.193Z,19.60
2018-05-16T12:24:36.295Z,19.50
2018-05-16T12:27:05.138Z,19.40
2018-05-16T12:29:33.230Z,19.40
2018-05-16T12:32:01.254Z,19.20
2018-05-16T12:34:29.365Z,19.20
2018-05-16T12:36:57.459Z,19.20
2018-05-16T12:39:26.283Z,18.90
2018-05-16T12:41:54.426Z,18.90
2018-05-16T12:44:23.239Z,19.40
2018-05-16T12:46:51.286Z,19.30
2018-05-16T12:49:20.233Z,19.80
2018-05-16T12:51:48.337Z,19.70
2018-05-16T12:54:16.415Z,19.70
2018-05-16T12:56:44.467Z,19.70
2018-05-16T12:59:12.543Z,19.70
2018-05-16T13:01:40.633Z,19.30
2018-05-16T13:04:08.716Z,18.80
2018-05-16T13:06:37.582Z,19.00
2018-05-16T13:09:06.639Z,18.90
2018-05-16T13:11:34.665Z,19.20
2018-05-16T13:14:03.221Z,19.00
2018-05-16T13:16:31.271Z,19.20
2018-05-16T13:18:59.270Z,18.80
2018-05-16T13:21:27.440Z,19.10
2018-05-16T13:23:55.514Z,19.10
2018-05-16T13:26:23.511Z,19.40
2018-05-16T13:28:52.410Z,19.50
2018-05-16T13:31:20.631Z,19.50
2018-05-16T13:33:48.710Z,20.00
2018-05-16T13:36:16.894Z,20.20
2018-05-16T13:38:45.080Z,20.40
2018-05-16T13:41:13.173Z,20.60
2018-05-16T13:43:42.029Z,21.60
2018-05-16T13:46:10.127Z,21.60
2018-05-16T13:48:38.213Z,21.80
2018-05-16T13:51:07.005Z,21.30
2018-05-16T13:53:35.786Z,21.00
2018-05-16T13:56:04.579Z,20.90
2018-05-16T13:58:33.353Z,21.00
2018-05-16T14:01:01.431Z,21.00
2018-05-16T14:03:30.282Z,21.10
2018-05-16T14:05:58.280Z,21.10
2018-05-16T14:08:26.349Z,21.40
2018-05-16T14:10:54.423Z,21.80
2018-05-16T14:13:22.460Z,21.50
2018-05-16T14:15:50.527Z,21.10
2018-05-16T14:18:19.787Z,20.70
2018-05-16T14:20:48.696Z,20.50
2018-05-16T14:23:16.725Z,20.50
2018-05-16T14:25:44.742Z,20.40
2018-05-16T14:28:12.764Z,20.40
2018-05-16T14:30:40.845Z,19.90
2018-05-16T14:33:08.853Z,20.00
2018-05-16T14:35:36.941Z,20.10
2018-05-16T14:38:05.759Z,19.90
2018-05-16T14:40:33.832Z,19.90
2018-05-16T14:43:01.861Z,19.70
2018-05-16T14:45:29.935Z,19.70
2018-05-16T14:47:58.014Z,19.70
2018-05-16T14:50:26.089Z,20.00
2018-05-16T14:52:54.888Z,20.50
2018-05-16T14:55:22.907Z,20.50
2018-05-16T14:57:51.769Z,21.70
2018-05-16T15:00:19.890Z,21.70
2018-05-16T15:02:48.741Z,21.30
2018-05-16T15:05:16.882Z,21.20
2018-05-16T15:07:44.935Z,21.10
2018-05-16T15:10:12.933Z,20.90
2018-05-16T15:12:40.986Z,21.20
2018-05-16T15:15:09.066Z,21.80
2018-05-16T15:17:37.859Z,21.70
2018-05-16T15:20:05.970Z,21.70
2018-05-16T15:22:33.999Z,21.40
2018-05-16T15:25:02.000Z,21.80
2018-05-16T15:27:30.152Z,22.40
2018-05-16T15:29:58.201Z,22.80
2018-05-16T15:32:26.230Z,23.50
2018-05-16T15:34:54.259Z,23.10
2018-05-16T15:37:22.369Z,21.10
2018-05-16T15:39:50.370Z,20.30
2018-05-16T15:42:19.148Z,20.50
2018-05-16T15:44:47.934Z,20.70
2018-05-16T15:47:16.761Z,21.00
2018-05-16T15:49:44.797Z,20.90
2018-05-16T15:52:13.638Z,21.30
2018-05-16T15:54:41.644Z,21.30
2018-05-16T15:57:10.144Z,20.00
2018-05-16T15:59:38.275Z,20.00
2018-05-16T16:02:07.562Z,19.90
2018-05-16T16:04:36.701Z,19.50
2018-05-16T16:07:04.814Z,19.50
2018-05-16T16:09:33.055Z,19.70
2018-05-16T16:12:03.042Z,19.60
2018-05-16T16:14:31.114Z,19.60
2018-05-16T16:16:59.206Z,19.70
2018-05-16T16:19:27.235Z,19.80
2018-05-16T16:21:55.235Z,20.00
2018-05-16T16:24:23.276Z,20.10
2018-05-16T16:26:51.366Z,19.70
2018-05-16T16:29:19.458Z,20.10
2018-05-16T16:31:47.471Z,20.50
2018-05-16T16:34:15.572Z,20.70
2018-05-16T16:36:44.363Z,20.20
2018-05-16T16:39:12.452Z,20.20
2018-05-16T16:41:40.470Z,20.00
2018-05-16T16:44:08.474Z,19.90
2018-05-16T16:46:36.553Z,19.80
2018-05-16T16:49:04.718Z,19.70
2018-05-16T16:51:32.706Z,19.60
2018-05-16T16:54:00.859Z,19.30
2018-05-16T16:56:28.951Z,19.30
2018-05-16T16:58:57.022Z,19.30
2018-05-16T17:01:25.093Z,19.20
2018-05-16T17:03:53.182Z,19.00
2018-05-16T17:06:21.253Z,19.00
2018-05-16T17:08:49.329Z,18.90
2018-05-16T17:11:17.351Z,18.90
2018-05-16T17:13:45.335Z,19.00
2018-05-16T17:16:13.439Z,18.90
2018-05-16T17:18:41.467Z,18.90
2018-05-16T17:21:09.544Z,18.90
2018-05-16T17:23:37.543Z,18.90
2018-05-16T17:26:05.578Z,18.90
2018-05-16T17:28:33.599Z,18.70
2018-05-16T17:31:01.610Z,18.60
2018-05-16T17:33:29.639Z,18.50
2018-05-16T17:35:57.657Z,18.50
2018-05-16T17:38:25.670Z,18.40
2018-05-16T17:40:53.711Z,18.40
2018-05-16T17:43:21.715Z,18.40
2018-05-16T17:45:49.718Z,18.30
2018-05-16T17:48:18.505Z,18.20
2018-05-16T17:50:47.290Z,18.20
2018-05-16T17:53:16.063Z,18.10
2018-05-16T17:55:44.159Z,18.00
2018-05-16T17:58:12.941Z,17.90
2018-05-16T18:00:41.747Z,18.00
2018-05-16T18:03:09.753Z,17.90
2018-05-16T18:05:37.826Z,17.90
2018-05-16T18:08:05.819Z,17.90
2018-05-16T18:10:33.916Z,17.90
2018-05-16T18:16:24.649Z,17.70
2018-05-16T18:18:52.651Z,17.70
2018-05-16T18:21:20.627Z,17.60
2018-05-16T18:23:48.705Z,17.60
2018-05-16T18:26:16.742Z,17.50
2018-05-16T18:28:44.814Z,17.50
2018-05-16T18:31:12.908Z,17.40
2018-05-16T18:33:40.906Z,17.40
2018-05-16T18:36:08.985Z,17.40
2018-05-16T18:38:36.992Z,17.40
2018-05-16T18:41:05.766Z,17.30
2018-05-16T18:43:34.527Z,17.30
2018-05-16T18:46:02.614Z,17.30
2018-05-16T18:48:30.717Z,17.30
2018-05-16T18:50:58.712Z,17.30
2018-05-16T18:53:26.741Z,17.20
2018-05-16T18:55:55.613Z,17.30
2018-05-16T18:58:23.580Z,17.30
2018-05-16T19:00:51.596Z,17.30
2018-05-16T19:03:19.748Z,17.30
2018-05-16T19:05:48.605Z,17.20
2018-05-16T19:08:16.698Z,17.20
2018-05-16T19:10:44.698Z,17.20
2018-05-16T19:13:12.725Z,17.20
2018-05-16T19:15:40.773Z,17.30
2018-05-16T19:18:08.789Z,17.30
2018-05-16T19:20:37.584Z,17.40
2018-05-16T19:23:06.433Z,17.40
2018-05-16T19:25:34.533Z,17.40
2018-05-16T19:28:02.611Z,17.40
2018-05-16T19:30:31.417Z,17.40
2018-05-16T19:32:59.435Z,17.30
2018-05-16T19:35:27.469Z,17.30
2018-05-16T19:37:55.489Z,17.30
2018-05-16T19:40:23.506Z,17.20
2018-05-16T19:42:51.589Z,17.20
2018-05-16T19:45:19.675Z,17.20
2018-05-16T19:47:47.670Z,17.20
2018-05-16T19:50:15.772Z,17.10
2018-05-16T19:52:44.566Z,17.30
2018-05-16T19:55:13.350Z,17.20
2018-05-16T19:57:42.185Z,17.10
2018-05-16T20:00:10.273Z,17.10
2018-05-16T20:02:38.256Z,17.20
2018-05-16T20:05:06.273Z,17.20
2018-05-16T20:07:34.283Z,17.20
2018-05-16T20:10:02.470Z,17.20
2018-05-16T20:12:30.497Z,17.20
2018-05-16T20:14:58.531Z,17.20
2018-05-16T20:17:26.567Z,17.20
2018-05-16T20:19:54.590Z,17.30
2018-05-16T20:22:23.383Z,17.20
2018-05-16T20:24:54.981Z,17.20
2018-05-16T20:27:23.013Z,17.10
2018-05-16T20:29:51.069Z,17.10
2018-05-16T20:32:19.902Z,17.10
2018-05-16T20:34:47.902Z,17.10
2018-05-16T20:37:16.018Z,17.10
2018-05-16T20:39:44.788Z,17.00
2018-05-16T20:42:13.578Z,17.00
2018-05-16T20:44:42.473Z,17.00
2018-05-16T20:47:11.231Z,17.00
2018-05-16T20:49:39.245Z,17.00
2018-05-16T20:52:08.024Z,17.00
2018-05-16T20:54:36.825Z,16.80
2018-05-16T20:57:04.831Z,16.80
2018-05-16T20:59:32.870Z,16.70
2018-05-16T21:02:00.994Z,16.70
2018-05-16T21:04:29.023Z,16.80
2018-05-16T21:06:57.079Z,16.80
2018-05-16T21:09:25.141Z,16.80
2018-05-16T21:11:53.999Z,16.90
2018-05-16T21:14:22.042Z,16.90
2018-05-16T21:16:50.069Z,16.90
2018-05-16T21:19:18.894Z,16.80
2018-05-16T21:21:47.017Z,16.70
2018-05-16T21:24:15.055Z,16.80
2018-05-16T21:26:43.110Z,16.70
2018-05-16T21:29:11.231Z,16.70
2018-05-16T21:31:39.231Z,16.80
2018-05-16T21:34:08.064Z,16.50
2018-05-16T21:36:36.122Z,16.40
2018-05-16T21:39:04.388Z,16.50
2018-05-16T21:41:32.378Z,16.60
2018-05-16T21:44:00.491Z,16.60
2018-05-16T21:46:28.527Z,16.40
2018-05-16T21:48:56.783Z,16.40
2018-05-16T21:51:24.893Z,16.50
2018-05-16T21:53:52.932Z,16.50
2018-05-16T21:56:21.007Z,16.50
2018-05-16T21:58:49.850Z,16.40
2018-05-16T22:01:18.687Z,16.50
2018-05-16T22:03:46.792Z,16.40
2018-05-16T22:06:14.858Z,16.50
2018-05-16T22:08:42.942Z,16.50
2018-05-16T22:11:11.005Z,16.50
2018-05-16T22:13:39.121Z,16.50
2018-05-16T22:16:07.970Z,16.50
2018-05-16T22:18:36.025Z,16.50
2018-05-16T22:21:04.131Z,16.50
2018-05-16T22:23:32.250Z,16.50
2018-05-16T22:26:00.332Z,16.50
2018-05-16T22:28:29.238Z,16.50
2018-05-16T22:31:03.041Z,16.50
2018-05-16T22:33:36.689Z,16.40
2018-05-16T22:36:11.217Z,16.30
2018-05-16T22:38:45.678Z,16.10
2018-05-16T22:41:19.367Z,16.10
2018-05-16T22:43:53.113Z,16.20
2018-05-16T22:46:21.218Z,16.40
2018-05-16T22:48:50.050Z,16.40
2018-05-16T22:51:18.128Z,16.30
2018-05-16T22:53:46.152Z,16.50
2018-05-16T22:56:15.052Z,16.40
2018-05-16T22:58:43.955Z,16.40
2018-05-16T23:01:12.058Z,16.50
2018-05-16T23:03:40.099Z,16.40
2018-05-16T23:06:08.180Z,16.50
2018-05-16T23:08:36.311Z,16.40
2018-05-16T23:11:04.304Z,16.40
2018-05-16T23:13:33.115Z,16.30
2018-05-16T23:16:01.324Z,16.20
2018-05-16T23:18:29.473Z,16.20
2018-05-16T23:20:57.543Z,16.20
2018-05-16T23:23:25.640Z,16.40
2018-05-16T23:25:53.655Z,16.40
2018-05-16T23:28:22.475Z,16.50
2018-05-16T23:30:50.605Z,16.40
2018-05-16T23:33:18.677Z,16.50
2018-05-16T23:35:47.521Z,16.50
2018-05-16T23:38:15.571Z,16.50
2018-05-16T23:40:43.630Z,16.50
2018-05-16T23:43:11.642Z,16.40
2018-05-16T23:45:39.684Z,16.40
2018-05-16T23:48:07.754Z,16.30
2018-05-16T23:50:35.869Z,16.30
2018-05-16T23:53:03.937Z,16.30
2018-05-16T23:55:32.000Z,16.20
2018-05-16T23:58:00.006Z,16.20
